createdAt,value
2019-04-21T00:03:43.047Z,4.78
2019-04-21T00:08:10.907Z,4.87
2019-04-21T00:12:16.406Z,4.75
2019-04-21T00:16:06.810Z,4.67
2019-04-21T00:20:19.385Z,4.65
2019-04-21T00:24:32.038Z,4.72
2019-04-21T00:28:49.049Z,4.42
2019-04-21T00:32:46.044Z,4.67
2019-04-21T00:36:50.235Z,4.50
2019-04-21T00:41:16.130Z,4.47
2019-04-21T00:45:09.755Z,4.45
2019-04-21T00:49:19.673Z,4.55
2019-04-21T00:53:51.916Z,4.60
2019-04-21T00:57:57.147Z,4.50
2019-04-21T01:01:59.749Z,4.17
2019-04-21T01:06:13.823Z,4.53
2019-04-21T01:10:09.157Z,4.60
2019-04-21T01:14:32.888Z,4.62
2019-04-21T01:18:33.223Z,4.33
2019-04-21T01:22:16.584Z,4.15
2019-04-21T01:26:35.267Z,4.55
2019-04-21T01:30:54.327Z,4.42
2019-04-21T01:34:57.963Z,4.47
2019-04-21T01:39:08.035Z,4.75
2019-04-21T01:43:15.071Z,4.35
2019-04-21T01:47:16.165Z,4.08
2019-04-21T01:51:27.873Z,4.50
2019-04-21T01:56:01.897Z,4.20
2019-04-21T02:00:00.842Z,4.25
2019-04-21T02:04:24.088Z,4.47
2019-04-21T02:08:21.581Z,4.25
2019-04-21T02:12:34.579Z,4.75
2019-04-21T02:16:40.542Z,4.50
2019-04-21T02:20:38.746Z,4.07
2019-04-21T02:25:05.991Z,4.42
2019-04-21T02:29:31.135Z,4.37
2019-04-21T02:33:43.109Z,4.28
2019-04-21T02:37:51.181Z,4.58
2019-04-21T02:41:55.837Z,4.50
2019-04-21T02:45:46.699Z,3.95
2019-04-21T02:54:33.394Z,4.15
2019-04-21T02:58:18.351Z,4.22
2019-04-21T03:07:19.455Z,4.45
2019-04-21T03:19:36.193Z,4.12
2019-04-21T03:23:46.726Z,4.28
2019-04-21T03:36:33.337Z,4.35
2019-04-21T03:40:08.025Z,4.25
2019-04-21T03:44:14.532Z,4.25
2019-04-21T03:48:31.960Z,4.15
2019-04-21T03:52:30.208Z,4.58
2019-04-21T04:05:45.294Z,4.08
2019-04-21T04:09:37.559Z,4.33
2019-04-21T04:17:49.942Z,4.55
2019-04-21T04:22:15.100Z,3.92
2019-04-21T04:26:09.208Z,4.25
2019-04-21T04:30:17.593Z,4.45
2019-04-21T04:34:22.712Z,3.95
2019-04-21T04:38:32.205Z,4.37
2019-04-21T04:42:51.482Z,4.05
2019-04-21T04:46:57.663Z,3.90
2019-04-21T05:03:28.948Z,4.00
2019-04-21T05:07:34.159Z,4.28
2019-04-21T05:15:32.202Z,4.20
2019-04-21T05:20:01.774Z,4.00
2019-04-21T05:23:47.008Z,4.35
2019-04-21T05:27:55.343Z,4.20
2019-04-21T05:32:17.102Z,4.90
2019-04-21T05:36:52.430Z,3.98
2019-04-21T05:40:52.745Z,4.70
2019-04-21T05:45:18.537Z,3.83
2019-04-21T05:49:38.760Z,4.95
2019-04-21T05:53:52.108Z,4.23
2019-04-21T05:57:54.328Z,4.17
2019-04-21T06:02:15.225Z,4.20
2019-04-21T06:06:20.664Z,5.62
2019-04-21T06:10:20.450Z,4.25
2019-04-21T06:14:30.501Z,5.37
2019-04-21T06:18:44.826Z,5.15
2019-04-21T06:22:43.160Z,4.90
2019-04-21T06:27:05.388Z,4.05
2019-04-21T06:31:07.141Z,4.80
2019-04-21T06:35:28.153Z,5.95
2019-04-21T06:39:40.501Z,6.08
2019-04-21T06:47:57.995Z,6.80
2019-04-21T06:51:58.310Z,4.22
2019-04-21T06:56:05.065Z,6.37
2019-04-21T07:00:12.057Z,5.53
2019-04-21T07:04:36.737Z,6.00
2019-04-21T07:12:35.492Z,6.00
2019-04-21T07:16:45.211Z,5.78
2019-04-21T07:20:56.436Z,5.22
2019-04-21T07:25:05.655Z,5.23
2019-04-21T07:29:11.623Z,5.03
2019-04-21T07:33:33.174Z,6.75
2019-04-21T07:37:23.877Z,6.28
2019-04-21T07:41:18.505Z,6.58
2019-04-21T07:45:30.425Z,5.35
2019-04-21T07:49:53.128Z,6.75
2019-04-21T07:54:02.264Z,4.40
2019-04-21T07:58:02.684Z,6.75
2019-04-21T08:02:13.244Z,4.37
2019-04-21T08:06:22.406Z,5.47
2019-04-21T08:10:30.003Z,5.03
2019-04-21T08:14:38.471Z,6.17
2019-04-21T08:18:47.230Z,4.40
2019-04-21T08:22:51.108Z,4.70
2019-04-21T08:27:01.474Z,5.17
2019-04-21T08:31:10.318Z,4.75
2019-04-21T08:35:33.853Z,4.50
2019-04-21T08:39:20.028Z,5.50
2019-04-21T08:43:40.000Z,5.50
2019-04-21T08:47:39.882Z,4.50
2019-04-21T08:51:50.499Z,3.70
2019-04-21T09:00:27.832Z,5.58
2019-04-21T09:04:31.382Z,5.17
2019-04-21T09:08:39.579Z,4.22
2019-04-21T09:12:41.764Z,4.40
2019-04-21T09:16:47.488Z,5.05
2019-04-21T09:20:58.452Z,4.75
2019-04-21T09:25:04.325Z,4.15
2019-04-21T09:29:05.868Z,3.85
2019-04-21T09:33:03.653Z,4.62
2019-04-21T09:37:18.990Z,5.40
2019-04-21T09:41:21.991Z,4.42
2019-04-21T09:45:24.493Z,4.70
2019-04-21T09:49:33.168Z,3.60
2019-04-21T09:53:41.121Z,3.52
2019-04-21T09:57:50.066Z,4.17
2019-04-21T10:01:58.992Z,4.67
2019-04-21T10:06:00.609Z,5.70
2019-04-21T10:10:08.149Z,3.52
2019-04-21T10:14:14.032Z,4.80
2019-04-21T10:18:21.692Z,3.80
2019-04-21T10:22:28.742Z,5.30
2019-04-21T10:26:35.593Z,3.35
2019-04-21T10:30:42.560Z,3.58
2019-04-21T10:34:49.471Z,5.47
2019-04-21T10:38:57.128Z,4.33
2019-04-21T10:43:03.799Z,5.92
2019-04-21T10:47:10.659Z,5.55
2019-04-21T10:51:17.148Z,3.10
2019-04-21T10:55:40.470Z,5.42
2019-04-21T10:59:31.086Z,6.47
2019-04-21T11:03:55.148Z,3.67
2019-04-21T11:08:08.880Z,3.47
2019-04-21T11:12:08.290Z,3.30
2019-04-21T11:16:15.073Z,3.75
2019-04-21T11:20:20.669Z,3.00
2019-04-21T11:24:27.140Z,3.62
2019-04-21T11:28:32.795Z,2.95
2019-04-21T11:32:39.268Z,3.70
2019-04-21T11:36:45.964Z,6.58
2019-04-21T11:40:51.853Z,4.35
2019-04-21T11:44:57.643Z,3.55
2019-04-21T11:49:04.157Z,3.33
2019-04-21T11:53:10.639Z,3.37
2019-04-21T11:57:22.729Z,3.85
2019-04-21T12:01:25.634Z,3.42
2019-04-21T12:05:31.396Z,4.75
2019-04-21T12:09:37.620Z,3.22
2019-04-21T12:13:43.431Z,3.80
2019-04-21T12:17:50.101Z,3.50
2019-04-21T12:22:05.398Z,3.00
2019-04-21T12:26:03.319Z,4.47
2019-04-21T12:30:11.351Z,3.90
2019-04-21T12:34:18.128Z,4.62
2019-04-21T12:38:36.397Z,3.33
2019-04-21T12:42:32.428Z,3.70
2019-04-21T12:46:38.292Z,4.75
2019-04-21T12:50:45.806Z,3.83
2019-04-21T12:54:51.563Z,3.67
2019-04-21T12:58:57.651Z,3.52
2019-04-21T13:03:03.696Z,3.85
2019-04-21T13:07:09.832Z,3.25
2019-04-21T13:11:17.113Z,5.08
2019-04-21T13:15:22.882Z,4.10
2019-04-21T13:19:29.362Z,3.40
2019-04-21T13:23:35.076Z,3.25
2019-04-21T13:27:40.947Z,3.92
2019-04-21T13:31:48.033Z,3.13
2019-04-21T13:35:55.154Z,3.17
2019-04-21T13:40:31.260Z,5.15
2019-04-21T13:44:17.880Z,3.20
2019-04-21T13:48:24.360Z,3.20
2019-04-21T13:52:30.937Z,3.20
2019-04-21T13:56:38.444Z,3.30
2019-04-21T14:00:45.448Z,3.08
2019-04-21T14:04:51.781Z,3.33
2019-04-21T14:08:58.943Z,3.00
2019-04-21T14:13:04.767Z,3.95
2019-04-21T14:17:10.867Z,2.92
2019-04-21T14:21:16.565Z,3.50
2019-04-21T14:25:22.189Z,3.10
2019-04-21T14:29:27.914Z,3.70
2019-04-21T14:33:36.136Z,3.50
2019-04-21T14:37:42.551Z,3.12
2019-04-21T14:41:48.347Z,2.77
2019-04-21T14:46:17.143Z,3.90
2019-04-21T14:50:42.053Z,3.13
2019-04-21T14:54:50.968Z,2.95
2019-04-21T14:58:58.689Z,3.47
2019-04-21T15:03:03.910Z,2.85
2019-04-21T15:07:09.734Z,3.22
2019-04-21T15:11:17.969Z,3.12
2019-04-21T15:15:23.753Z,2.80
2019-04-21T15:19:30.487Z,3.50
2019-04-21T15:23:38.071Z,2.70
2019-04-21T15:27:46.530Z,2.62
2019-04-21T15:31:52.623Z,2.72
2019-04-21T15:35:58.368Z,2.92
2019-04-21T15:40:15.061Z,2.90
2019-04-21T15:44:12.466Z,2.80
2019-04-21T15:48:20.145Z,2.95
2019-04-21T15:52:28.030Z,2.85
2019-04-21T15:56:51.292Z,2.80
2019-04-21T16:01:07.267Z,2.35
2019-04-21T16:05:13.094Z,2.40
2019-04-21T16:09:21.743Z,2.50
2019-04-21T16:13:27.607Z,2.25
2019-04-21T16:17:35.108Z,2.50
2019-04-21T16:21:44.307Z,2.70
2019-04-21T16:25:48.711Z,2.50
2019-04-21T16:29:54.430Z,2.20
2019-04-21T16:34:01.024Z,2.22
2019-04-21T16:38:07.695Z,2.37
2019-04-21T16:42:14.212Z,2.60
2019-04-21T16:46:21.087Z,2.15
2019-04-21T16:50:27.963Z,1.90
2019-04-21T16:54:33.732Z,2.40
2019-04-21T16:58:58.869Z,2.35
2019-04-21T17:03:06.375Z,2.27
2019-04-21T17:07:13.457Z,2.30
2019-04-21T17:11:26.168Z,2.35
2019-04-21T17:15:46.124Z,2.40
2019-04-21T17:19:43.015Z,2.25
2019-04-21T17:23:44.249Z,2.15
2019-04-21T17:27:51.117Z,2.30
2019-04-21T17:31:57.377Z,2.08
2019-04-21T17:36:03.166Z,2.17
2019-04-21T17:40:09.398Z,2.30
2019-04-21T17:44:15.164Z,2.30
2019-04-21T17:48:21.583Z,2.05
2019-04-21T17:52:48.325Z,2.00
2019-04-21T17:57:11.043Z,2.27
2019-04-21T18:01:20.628Z,2.25
2019-04-21T18:05:28.981Z,2.00
2019-04-21T18:09:47.084Z,2.10
2019-04-21T18:13:26.547Z,2.00
2019-04-21T18:17:32.234Z,2.20
2019-04-21T18:21:56.033Z,2.20
2019-04-21T18:26:04.178Z,2.00
2019-04-21T18:30:26.539Z,2.30
2019-04-21T18:34:59.689Z,2.45
2019-04-21T18:39:37.885Z,2.65
2019-04-21T18:44:04.720Z,3.15
2019-04-21T18:48:06.778Z,3.17
2019-04-21T18:52:32.549Z,3.58
2019-04-21T18:56:29.673Z,3.70
2019-04-21T19:00:40.152Z,3.45
2019-04-21T19:04:44.956Z,3.65
2019-04-21T19:09:10.310Z,3.47
2019-04-21T19:18:11.897Z,3.42
2019-04-21T19:21:31.159Z,3.37
2019-04-21T19:25:41.214Z,3.50
2019-04-21T19:30:04.090Z,3.35
2019-04-21T19:33:48.178Z,3.30
2019-04-21T19:37:56.429Z,3.50
2019-04-21T19:42:03.007Z,3.20
2019-04-21T19:46:21.222Z,3.22
2019-04-21T19:50:28.683Z,3.00
2019-04-21T19:54:25.250Z,3.12
2019-04-21T19:58:27.453Z,2.95
2019-04-21T20:02:32.348Z,3.05
2019-04-21T20:06:52.227Z,3.30
2019-04-21T20:11:04.048Z,3.10
2019-04-21T20:15:20.493Z,3.00
2019-04-21T20:19:08.339Z,3.47
2019-04-21T20:23:19.240Z,3.20
2019-04-21T20:27:33.789Z,3.37
2019-04-21T20:31:49.016Z,2.85
2019-04-21T20:36:11.973Z,3.00
2019-04-21T20:39:53.377Z,3.08
2019-04-21T20:44:11.977Z,3.30
2019-04-21T20:48:08.185Z,2.98
2019-04-21T20:52:33.630Z,3.15
2019-04-21T20:56:27.368Z,3.17
2019-04-21T21:00:54.740Z,3.40
2019-04-21T21:04:40.484Z,3.15
2019-04-21T21:08:55.460Z,3.15
2019-04-21T21:13:06.333Z,3.45
2019-04-21T21:17:30.350Z,3.33
2019-04-21T21:21:22.376Z,3.83
2019-04-21T21:25:35.320Z,3.00
2019-04-21T21:29:33.015Z,3.05
2019-04-21T21:33:54.200Z,2.90
2019-04-21T21:37:58.714Z,3.30
2019-04-21T21:45:55.594Z,3.27
2019-04-21T21:50:07.332Z,3.12
2019-04-21T21:54:05.349Z,3.12
2019-04-21T21:58:12.377Z,3.08
2019-04-21T22:02:28.294Z,3.22
2019-04-21T22:06:41.066Z,3.12
2019-04-21T22:10:33.248Z,3.22
2019-04-21T22:14:46.897Z,3.33
2019-04-21T22:23:05.021Z,3.27
2019-04-21T22:27:05.364Z,3.65
2019-04-21T22:31:20.665Z,3.22
2019-04-21T22:35:30.065Z,3.47
2019-04-21T22:39:49.749Z,3.47
2019-04-21T22:43:42.128Z,3.40
2019-04-21T22:47:45.135Z,3.47
2019-04-21T22:51:53.892Z,3.30
2019-04-21T22:56:13.633Z,3.35
2019-04-21T23:00:16.466Z,3.50
2019-04-21T23:04:25.406Z,3.35
2019-04-21T23:08:33.183Z,3.30
2019-04-21T23:12:40.128Z,3.75
2019-04-21T23:16:46.299Z,3.87
2019-04-21T23:21:08.480Z,3.40
2019-04-21T23:25:18.153Z,3.30
2019-04-21T23:29:33.439Z,3.58
2019-04-21T23:33:16.409Z,3.17
2019-04-21T23:37:24.137Z,3.62
2019-04-21T23:41:37.324Z,3.20
2019-04-21T23:45:38.184Z,3.20
2019-04-21T23:49:51.121Z,3.42
2019-04-21T23:53:51.147Z,3.77
2019-04-21T23:58:06.968Z,3.40
